Time;durP1;ratioP1;P1;durP2;ratioP2;P2;SDS_P1;SDS_P2;PMS_P1;PMS_P2;Temp;Humidity;BMP_temperature;BMP_pressure;BME280_temperature;BME280_humidity;BME280_pressure;Samples;Min_cycle;Max_cycle;Signal;HPM_P1;HPM_P2
2023/06/12 00:01:17;;;;;;;3.40;1.90;;;23.20;90.80;;;;;;6214485;23;19997;-81
2023/06/12 00:03:43;;;;;;;2.92;2.00;;;23.20;90.70;;;;;;6214790;23;20307;-81
2023/06/12 00:06:09;;;;;;;2.50;1.80;;;23.20;90.60;;;;;;6215136;23;20000;-81
2023/06/12 00:08:36;;;;;;;2.58;1.70;;;23.30;90.60;;;;;;6215268;23;20005;-81
2023/06/12 00:11:09;;;;;;;4.53;2.60;;;23.20;90.60;;;;;;6215038;23;20055;-81
2023/06/12 00:13:38;;;;;;;5.47;2.08;;;23.20;90.40;;;;;;6190492;23;20080;-81
2023/06/12 00:16:04;;;;;;;1.70;1.60;;;23.30;90.50;;;;;;6217029;23;20079;-80
2023/06/12 00:18:30;;;;;;;2.17;1.77;;;23.30;90.40;;;;;;6217486;23;20419;-80
2023/06/12 00:20:56;;;;;;;1.98;1.60;;;23.20;90.40;;;;;;6217509;23;20004;-80
2023/06/12 00:23:21;;;;;;;4.18;1.58;;;23.30;90.30;;;;;;6217640;23;20004;-79
2023/06/12 00:25:47;;;;;;;1.85;1.63;;;23.30;90.20;;;;;;6217398;23;20004;-78
2023/06/12 00:28:13;;;;;;;2.20;1.70;;;23.30;90.20;;;;;;6217071;23;20075;-79
2023/06/12 00:30:38;;;;;;;2.05;1.50;;;23.30;90.20;;;;;;6191026;23;20008;-79
2023/06/12 00:33:04;;;;;;;2.60;1.40;;;23.30;90.30;;;;;;6217486;23;20028;-79
2023/06/12 00:35:30;;;;;;;2.90;1.77;;;23.30;90.20;;;;;;6217320;23;20363;-80
2023/06/12 00:37:55;;;;;;;2.58;1.27;;;23.30;90.00;;;;;;6217473;23;20367;-80
2023/06/12 00:40:21;;;;;;;3.05;1.55;;;23.30;90.00;;;;;;6217167;23;20084;-80
2023/06/12 00:42:50;;;;;;;2.63;1.77;;;23.30;90.10;;;;;;6217325;23;19997;-80
2023/06/12 00:45:18;;;;;;;4.38;1.67;;;23.30;90.20;;;;;;6217498;23;20070;-80
2023/06/12 00:47:56;;;;;;;2.55;1.80;;;23.20;90.20;;;;;;6217696;23;20007;-80
2023/06/12 00:50:25;;;;;;;1.60;1.50;;;23.20;90.30;;;;;;6216563;23;20072;-81
2023/06/12 00:52:52;;;;;;;5.75;2.20;;;23.20;90.40;;;;;;6216418;23;20312;-80
2023/06/12 00:55:18;;;;;;;1.63;1.20;;;23.20;90.40;;;;;;6189577;23;20332;-80
2023/06/12 00:57:46;;;;;;;2.28;1.60;;;23.20;90.50;;;;;;6216529;23;20001;-80
2023/06/12 01:00:13;;;;;;;2.20;1.40;;;23.20;90.60;;;;;;6216274;23;20008;-80
2023/06/12 01:02:42;;;;;;;3.10;1.52;;;23.20;90.60;;;;;;6216383;23;20005;-79
2023/06/12 01:05:14;;;;;;;3.50;1.50;;;23.10;90.70;;;;;;6216273;23;20029;-80
2023/06/12 01:07:50;;;;;;;3.50;1.73;;;23.10;90.70;;;;;;6216068;23;20027;-80
2023/06/12 01:10:30;;;;;;;4.00;2.10;;;23.10;90.60;;;;;;6190056;23;20414;-80
2023/06/12 01:12:59;;;;;;;1.88;1.60;;;23.10;90.50;;;;;;6216365;23;20005;-80
2023/06/12 01:15:25;;;;;;;1.83;1.52;;;23.10;90.40;;;;;;6215633;23;20092;-80
2023/06/12 01:17:51;;;;;;;1.60;1.50;;;23.20;90.40;;;;;;6217022;23;20033;-80
2023/06/12 01:20:17;;;;;;;1.55;1.38;;;23.10;90.30;;;;;;6215518;23;20003;-81
2023/06/12 01:23:00;;;;;;;2.95;1.60;;;23.10;90.40;;;;;;6216293;23;20067;-80
2023/06/12 01:25:55;;;;;;;1.85;1.73;;;23.20;90.40;;;;;;6216711;23;20004;-80
2023/06/12 01:28:43;;;;;;;5.38;1.50;;;23.20;90.30;;;;;;6216088;23;20497;-80
2023/06/12 01:31:43;;;;;;;1.88;1.55;;;23.20;90.20;;;;;;6190406;23;20047;-81
2023/06/12 01:34:34;;;;;;;1.85;1.75;;;23.20;90.20;;;;;;6216602;23;19997;-80
2023/06/12 01:37:20;;;;;;;3.35;1.73;;;23.20;90.00;;;;;;6216511;23;20408;-80
2023/06/12 01:39:58;;;;;;;2.05;1.60;;;23.20;90.20;;;;;;6216273;23;20001;-80
2023/06/12 01:42:26;;;;;;;6.00;1.80;;;23.20;90.00;;;;;;6216303;23;20023;-80
2023/06/12 01:44:52;;;;;;;1.88;1.63;;;23.10;90.00;;;;;;6216738;23;20458;-80
2023/06/12 01:47:19;;;;;;;1.90;1.70;;;23.20;89.70;;;;;;6216942;23;20092;-80
2023/06/12 01:49:45;;;;;;;3.83;2.10;;;23.10;89.30;;;;;;6216622;23;20000;-80
2023/06/12 01:52:11;;;;;;;2.20;2.00;;;23.10;88.70;;;;;;6189242;23;20020;-80
2023/06/12 01:54:37;;;;;;;3.55;2.60;;;23.20;88.60;;;;;;6216265;23;20004;-80
2023/06/12 01:57:03;;;;;;;2.20;1.83;;;23.10;88.80;;;;;;6215719;23;20057;-80
2023/06/12 01:59:29;;;;;;;4.80;2.13;;;23.10;89.00;;;;;;6215749;23;20004;-81
2023/06/12 02:01:55;;;;;;;3.47;1.60;;;23.00;89.30;;;;;;6215754;23;20000;-81
2023/06/12 02:04:20;;;;;;;2.08;1.70;;;22.90;89.50;;;;;;6215820;23;20280;-81
2023/06/12 02:06:46;;;;;;;2.30;1.70;;;22.90;89.60;;;;;;6215942;23;20032;-81
2023/06/12 02:09:12;;;;;;;1.48;1.33;;;22.90;89.80;;;;;;6215751;23;20000;-81
2023/06/12 02:11:39;;;;;;;2.05;1.85;;;22.90;89.90;;;;;;6216040;23;20004;-81
2023/06/12 02:14:04;;;;;;;1.75;1.65;;;22.90;90.00;;;;;;6215882;23;20430;-81
2023/06/12 02:16:30;;;;;;;3.65;2.45;;;22.90;89.90;;;;;;6216147;23;20023;-81
2023/06/12 02:18:56;;;;;;;2.92;2.03;;;22.90;90.00;;;;;;6215821;23;20027;-81
2023/06/12 02:21:22;;;;;;;1.80;1.60;;;22.80;90.10;;;;;;6215767;23;20276;-81
2023/06/12 02:23:48;;;;;;;1.85;1.70;;;22.80;90.10;;;;;;6215794;23;20088;-81
2023/06/12 02:26:16;;;;;;;2.15;1.63;;;22.80;90.10;;;;;;6215427;23;20448;-81
2023/06/12 02:28:42;;;;;;;2.45;1.90;;;22.80;90.20;;;;;;6215972;23;20059;-81
2023/06/12 02:31:08;;;;;;;1.83;1.65;;;22.90;90.30;;;;;;6215822;23;20004;-81
2023/06/12 02:33:33;;;;;;;1.92;1.70;;;22.90;90.10;;;;;;6215606;23;20005;-80
2023/06/12 02:35:59;;;;;;;3.90;1.90;;;22.90;90.10;;;;;;6216050;23;20001;-80
2023/06/12 02:38:26;;;;;;;2.53;1.95;;;22.90;90.10;;;;;;6189236;23;20005;-81
2023/06/12 02:40:51;;;;;;;3.60;2.03;;;22.90;90.10;;;;;;6215095;23;20001;-80
2023/06/12 02:43:17;;;;;;;2.30;2.10;;;22.90;90.10;;;;;;6215841;23;20012;-80
2023/06/12 02:45:43;;;;;;;1.50;1.40;;;22.80;90.10;;;;;;6215027;23;20016;-80
2023/06/12 02:48:08;;;;;;;4.28;1.85;;;22.80;90.20;;;;;;6215492;23;20032;-80
2023/06/12 02:50:34;;;;;;;1.80;1.60;;;22.80;90.20;;;;;;6214865;23;20008;-80
2023/06/12 02:53:00;;;;;;;1.92;1.73;;;22.80;90.20;;;;;;6215074;23;20005;-80
2023/06/12 02:55:25;;;;;;;3.78;1.60;;;22.80;90.30;;;;;;6215221;23;20058;-80
2023/06/12 02:57:53;;;;;;;2.88;1.58;;;22.80;90.20;;;;;;6215214;23;20001;-80
2023/06/12 03:00:18;;;;;;;1.83;1.73;;;22.80;90.20;;;;;;6215557;23;20084;-81
2023/06/12 03:02:45;;;;;;;3.38;2.13;;;22.80;90.20;;;;;;6215660;23;20025;-81
2023/06/12 03:05:12;;;;;;;1.65;1.55;;;22.70;90.20;;;;;;6214797;23;19996;-81
2023/06/12 03:07:40;;;;;;;1.75;1.60;;;22.70;90.10;;;;;;6215524;23;20000;-81
2023/06/12 03:10:07;;;;;;;1.77;1.63;;;22.80;90.20;;;;;;6214554;23;20031;-81
2023/06/12 03:12:33;;;;;;;3.10;2.05;;;22.80;90.10;;;;;;6214308;23;20000;-79
2023/06/12 03:14:59;;;;;;;2.80;1.63;;;22.90;90.20;;;;;;6214365;23;20005;-80
2023/06/12 03:17:25;;;;;;;2.92;1.85;;;22.90;90.10;;;;;;6214674;23;20009;-80
2023/06/12 03:19:51;;;;;;;2.33;1.85;;;22.90;90.10;;;;;;6215435;23;20005;-81
2023/06/12 03:22:16;;;;;;;2.25;1.95;;;22.90;90.00;;;;;;6215749;23;20001;-81
2023/06/12 03:24:43;;;;;;;1.90;1.70;;;22.90;90.10;;;;;;6214704;23;20003;-81
2023/06/12 03:27:10;;;;;;;2.53;2.00;;;22.90;90.10;;;;;;6214820;23;20000;-81
2023/06/12 03:29:36;;;;;;;2.70;1.90;;;22.90;90.20;;;;;;6215551;23;20083;-81
2023/06/12 03:32:01;;;;;;;2.03;1.50;;;22.80;90.20;;;;;;6215798;23;20047;-81
2023/06/12 03:34:28;;;;;;;2.53;1.80;;;22.80;90.30;;;;;;6215104;23;20005;-80
2023/06/12 03:36:54;;;;;;;2.20;1.67;;;22.80;90.40;;;;;;6215860;23;20028;-80
2023/06/12 03:39:20;;;;;;;2.35;1.60;;;22.80;90.50;;;;;;6215730;23;20043;-81
2023/06/12 03:41:56;;;;;;;1.50;1.40;;;22.90;90.50;;;;;;6215491;23;20004;-80
2023/06/12 03:44:22;;;;;;;3.65;1.70;;;22.80;90.40;;;;;;6215650;23;20047;-80
2023/06/12 03:46:48;;;;;;;4.15;1.65;;;22.90;90.30;;;;;;6215293;23;20005;-80
2023/06/12 03:49:13;;;;;;;1.85;1.70;;;22.80;90.20;;;;;;6215322;23;20131;-80
2023/06/12 03:51:39;;;;;;;2.53;1.65;;;22.80;90.30;;;;;;6214711;23;20008;-80
2023/06/12 03:54:06;;;;;;;2.30;1.88;;;22.80;90.30;;;;;;6214959;23;20015;-81
2023/06/12 03:56:32;;;;;;;2.08;1.85;;;22.70;90.40;;;;;;6214610;23;20005;-80
2023/06/12 03:58:58;;;;;;;1.50;1.40;;;22.70;90.50;;;;;;6215705;23;20004;-80
2023/06/12 04:01:24;;;;;;;3.85;2.13;;;22.70;90.60;;;;;;6214542;23;20027;-80
2023/06/12 04:03:49;;;;;;;3.05;1.73;;;22.60;90.70;;;;;;6188223;23;20072;-80
2023/06/12 04:06:15;;;;;;;2.20;2.00;;;22.60;91.00;;;;;;6215216;23;20055;-79
2023/06/12 04:08:44;;;;;;;1.95;1.50;;;22.60;90.80;;;;;;6215713;23;20009;-80
2023/06/12 04:11:13;;;;;;;2.47;2.03;;;22.60;90.90;;;;;;6214146;23;20347;-80
2023/06/12 04:13:39;;;;;;;1.73;1.63;;;22.60;90.90;;;;;;6214425;23;20335;-80
2023/06/12 04:16:06;;;;;;;3.35;1.98;;;22.60;90.90;;;;;;6214365;23;20009;-80
2023/06/12 04:18:32;;;;;;;2.25;2.05;;;22.60;90.90;;;;;;6215480;23;20331;-80
2023/06/12 04:21:00;;;;;;;2.30;1.98;;;22.70;91.00;;;;;;6214861;23;20004;-80
2023/06/12 04:23:29;;;;;;;1.83;1.70;;;22.60;91.00;;;;;;6215209;23;20005;-80
2023/06/12 04:26:04;;;;;;;2.22;1.80;;;22.60;91.00;;;;;;6214786;23;20007;-79
2023/06/12 04:28:31;;;;;;;2.20;2.00;;;22.60;91.10;;;;;;6214956;23;20040;-79
2023/06/12 04:30:57;;;;;;;2.08;1.70;;;22.60;91.00;;;;;;6187668;23;20008;-79
2023/06/12 04:33:23;;;;;;;2.53;1.92;;;22.70;91.00;;;;;;6214063;23;20031;-79
2023/06/12 04:35:50;;;;;;;1.70;1.60;;;22.70;91.10;;;;;;6214583;23;20011;-80
2023/06/12 04:38:16;;;;;;;2.28;1.45;;;22.70;91.00;;;;;;6214959;23;20072;-79
2023/06/12 04:40:44;;;;;;;2.40;1.67;;;22.80;90.90;;;;;;6214497;23;19996;-80
2023/06/12 04:43:10;;;;;;;2.97;1.60;;;22.80;90.80;;;;;;6214921;23;19997;-79
2023/06/12 04:45:36;;;;;;;2.65;1.67;;;22.80;90.70;;;;;;6214545;23;20009;-79
2023/06/12 04:48:02;;;;;;;2.30;1.90;;;22.80;90.60;;;;;;6214882;23;19997;-80
2023/06/12 04:50:28;;;;;;;2.88;1.80;;;22.70;90.60;;;;;;6213863;23;20288;-81
2023/06/12 04:52:53;;;;;;;3.88;1.85;;;22.80;90.70;;;;;;6214330;23;20096;-78
2023/06/12 04:55:22;;;;;;;2.58;1.63;;;22.80;90.80;;;;;;6214703;23;20028;-78
2023/06/12 04:57:52;;;;;;;4.80;1.85;;;22.80;90.80;;;;;;6213448;23;20005;-78
2023/06/12 05:00:19;;;;;;;5.35;1.75;;;22.80;90.80;;;;;;6216372;23;20003;-79
2023/06/12 05:02:46;;;;;;;5.72;1.95;;;22.80;90.80;;;;;;6189804;23;20406;-78
2023/06/12 05:05:12;;;;;;;1.85;1.70;;;22.80;90.80;;;;;;6216314;23;20058;-79
2023/06/12 05:07:37;;;;;;;2.30;1.73;;;22.80;90.70;;;;;;6216959;23;20410;-79
2023/06/12 05:10:04;;;;;;;1.75;1.55;;;22.80;90.70;;;;;;6216481;23;20024;-78
2023/06/12 05:12:30;;;;;;;2.75;1.88;;;22.90;90.70;;;;;;6216290;23;20000;-77
2023/06/12 05:14:59;;;;;;;3.17;1.80;;;22.90;90.60;;;;;;6216519;23;20008;-78
2023/06/12 05:17:26;;;;;;;3.53;1.80;;;22.90;90.60;;;;;;6216434;23;20037;-78
2023/06/12 05:19:51;;;;;;;4.40;1.88;;;22.90;90.60;;;;;;6216225;23;20008;-78
2023/06/12 05:22:17;;;;;;;2.15;1.63;;;22.90;90.60;;;;;;6216135;23;20319;-78
2023/06/12 05:24:42;;;;;;;2.08;1.80;;;23.00;90.60;;;;;;6188517;23;20016;-78
2023/06/12 05:27:08;;;;;;;2.35;1.63;;;23.10;90.70;;;;;;6215547;23;20071;-78
2023/06/12 05:29:34;;;;;;;2.22;1.88;;;23.10;90.70;;;;;;6214924;23;20083;-77
2023/06/12 05:32:00;;;;;;;2.33;2.13;;;23.20;90.50;;;;;;6214958;23;20008;-77
2023/06/12 05:34:26;;;;;;;2.50;1.95;;;23.30;90.30;;;;;;6215299;23;20009;-78
2023/06/12 05:36:52;;;;;;;1.60;1.50;;;23.30;90.30;;;;;;6188330;23;20430;-78
2023/06/12 05:39:17;;;;;;;1.85;1.55;;;23.40;90.20;;;;;;6215199;23;20433;-77
2023/06/12 05:41:43;;;;;;;2.78;1.75;;;23.40;90.00;;;;;;6216247;23;20012;-84
2023/06/12 05:44:09;;;;;;;2.95;1.60;;;23.60;90.10;;;;;;6215263;23;20024;-78
2023/06/12 05:46:34;;;;;;;1.35;1.25;;;23.60;89.80;;;;;;6215678;23;20027;-88
2023/06/12 05:49:00;;;;;;;2.58;1.65;;;23.70;89.40;;;;;;6214982;23;20000;-77
2023/06/12 05:51:29;;;;;;;2.90;1.83;;;23.80;89.10;;;;;;6216285;23;20004;-77
2023/06/12 05:53:55;;;;;;;2.63;1.60;;;23.80;87.90;;;;;;6189384;23;20015;-77
2023/06/12 05:56:22;;;;;;;2.30;2.00;;;23.80;88.00;;;;;;6215975;23;20005;-77
2023/06/12 05:58:47;;;;;;;2.08;1.65;;;23.90;87.80;;;;;;6216155;23;20387;-77
2023/06/12 06:01:17;;;;;;;2.72;1.80;;;23.90;87.80;;;;;;6215952;23;19996;-80
2023/06/12 06:03:46;;;;;;;3.67;2.15;;;23.90;87.50;;;;;;6216039;23;20000;-80
2023/06/12 06:06:13;;;;;;;3.80;2.17;;;23.90;87.40;;;;;;6214244;23;20036;-80
2023/06/12 06:08:38;;;;;;;2.10;1.83;;;24.00;87.10;;;;;;6189309;23;20003;-80
2023/06/12 06:11:04;;;;;;;1.98;1.77;;;24.00;87.00;;;;;;6216421;23;20005;-78
2023/06/12 06:13:31;;;;;;;3.30;2.00;;;24.10;86.80;;;;;;6189059;23;20005;-77
2023/06/12 06:15:56;;;;;;;3.63;2.08;;;24.10;86.70;;;;;;6215373;23;20016;-77
2023/06/12 06:18:24;;;;;;;2.88;1.95;;;24.10;86.70;;;;;;6215770;23;20076;-77
2023/06/12 06:20:49;;;;;;;3.80;2.50;;;24.10;86.40;;;;;;6214770;23;20005;-78
2023/06/12 06:23:16;;;;;;;4.60;2.40;;;24.20;86.10;;;;;;6214412;23;20128;-76
2023/06/12 06:25:43;;;;;;;2.65;1.80;;;24.20;85.10;;;;;;6214831;23;20000;-77
2023/06/12 06:28:08;;;;;;;2.08;1.80;;;24.20;85.10;;;;;;6213668;23;20008;-77
2023/06/12 06:30:34;;;;;;;2.72;2.05;;;24.30;85.00;;;;;;6213497;23;20328;-78
2023/06/12 06:33:00;;;;;;;3.63;2.05;;;24.30;84.90;;;;;;6214961;23;20071;-80
2023/06/12 06:35:25;;;;;;;3.15;2.25;;;24.40;84.90;;;;;;6215974;23;20324;-79
2023/06/12 06:37:51;;;;;;;2.83;1.90;;;24.40;84.40;;;;;;6215701;23;20007;-78
2023/06/12 06:40:17;;;;;;;3.33;1.73;;;24.40;84.30;;;;;;6216006;23;20039;-78
2023/06/12 06:42:42;;;;;;;3.60;2.00;;;24.50;84.20;;;;;;6188676;23;20001;-78
2023/06/12 06:45:08;;;;;;;2.20;1.60;;;24.50;84.40;;;;;;6216291;23;20024;-78
2023/06/12 06:47:35;;;;;;;2.97;2.10;;;24.50;84.50;;;;;;6210360;23;20028;-77
2023/06/12 06:50:01;;;;;;;3.10;1.98;;;24.50;84.20;;;;;;6213742;23;20008;-77
2023/06/12 06:52:27;;;;;;;2.90;1.70;;;24.60;84.20;;;;;;6214049;23;20008;-77
2023/06/12 06:54:52;;;;;;;3.58;1.85;;;24.60;83.80;;;;;;6188311;23;20004;-77
2023/06/12 06:57:18;;;;;;;4.10;2.00;;;24.60;83.90;;;;;;6211711;23;20004;-77
2023/06/12 06:59:45;;;;;;;2.25;2.00;;;24.60;83.70;;;;;;6215021;23;20064;-77
2023/06/12 07:02:10;;;;;;;4.07;1.85;;;24.60;83.70;;;;;;6214892;23;20010;-77
2023/06/12 07:04:36;;;;;;;2.35;1.90;;;24.70;83.60;;;;;;6215035;23;20001;-78
2023/06/12 07:07:03;;;;;;;4.47;2.30;;;24.70;83.50;;;;;;6213258;23;20525;-78
2023/06/12 07:09:29;;;;;;;2.28;2.08;;;24.70;83.60;;;;;;6212788;23;20005;-78
2023/06/12 07:11:55;;;;;;;2.60;2.05;;;24.70;83.50;;;;;;6209745;23;20011;-79
2023/06/12 07:14:21;;;;;;;2.55;2.22;;;24.70;83.80;;;;;;6212743;23;20364;-80
2023/06/12 07:16:46;;;;;;;2.80;2.55;;;24.70;83.80;;;;;;6214291;23;20320;-77
2023/06/12 07:19:12;;;;;;;3.33;2.00;;;24.80;84.00;;;;;;6213175;23;19997;-77
2023/06/12 07:21:38;;;;;;;2.40;2.20;;;24.80;83.90;;;;;;6214642;23;20303;-79
2023/06/12 07:24:04;;;;;;;1.90;1.80;;;24.80;84.40;;;;;;6212304;23;19997;-80
2023/06/12 07:26:30;;;;;;;2.95;2.35;;;24.80;84.80;;;;;;6187679;23;20529;-80
2023/06/12 07:28:57;;;;;;;2.35;2.03;;;24.80;84.50;;;;;;6187476;23;20040;-77
2023/06/12 07:31:23;;;;;;;4.25;2.03;;;24.80;84.90;;;;;;6214874;23;20020;-77
2023/06/12 07:33:48;;;;;;;4.68;2.05;;;24.80;84.40;;;;;;6213545;23;20015;-76
2023/06/12 07:36:15;;;;;;;2.85;2.05;;;24.80;84.30;;;;;;6214419;23;20008;-77
2023/06/12 07:38:41;;;;;;;3.55;2.50;;;24.90;85.00;;;;;;6188093;23;20038;-77
2023/06/12 07:41:07;;;;;;;2.92;2.17;;;25.00;84.50;;;;;;6215233;23;20024;-77
2023/06/12 07:43:34;;;;;;;2.70;1.88;;;25.00;84.70;;;;;;6214132;23;20419;-76
2023/06/12 07:46:03;;;;;;;2.42;2.22;;;25.10;84.40;;;;;;6212458;23;20040;-77
2023/06/12 07:48:29;;;;;;;4.00;2.20;;;25.20;84.50;;;;;;6188016;23;20008;-77
2023/06/12 07:50:55;;;;;;;2.50;2.22;;;25.20;84.20;;;;;;6215011;23;20231;-77
2023/06/12 07:53:21;;;;;;;3.35;2.20;;;25.20;84.40;;;;;;6214591;23;20327;-78
2023/06/12 07:55:49;;;;;;;2.83;2.30;;;25.30;84.60;;;;;;6214585;23;20016;-78
2023/06/12 07:58:15;;;;;;;2.95;2.33;;;25.30;84.50;;;;;;6189618;23;20032;-78
2023/06/12 08:00:42;;;;;;;2.33;2.10;;;25.40;84.30;;;;;;6213877;23;20445;-78
2023/06/12 08:03:08;;;;;;;3.45;2.28;;;25.40;84.50;;;;;;6214047;23;20393;-78
2023/06/12 08:05:35;;;;;;;3.22;2.03;;;25.40;84.10;;;;;;6188037;23;20094;-76
2023/06/12 08:08:01;;;;;;;3.78;2.22;;;25.40;84.40;;;;;;6214309;23;20001;-77
2023/06/12 08:10:27;;;;;;;2.30;2.10;;;25.40;84.20;;;;;;6212913;23;20012;-76
2023/06/12 08:12:53;;;;;;;3.17;2.20;;;25.40;84.00;;;;;;6214355;23;20015;-77
2023/06/12 08:15:20;;;;;;;2.55;2.22;;;25.50;83.90;;;;;;6213667;23;20083;-78
2023/06/12 08:17:46;;;;;;;3.25;2.05;;;25.50;83.80;;;;;;6187438;23;20017;-78
2023/06/12 08:20:15;;;;;;;2.35;1.83;;;25.60;83.70;;;;;;6186979;23;20011;-78
2023/06/12 08:22:42;;;;;;;2.67;2.00;;;25.70;83.30;;;;;;6188000;23;20004;-77
2023/06/12 08:25:08;;;;;;;2.67;1.80;;;25.70;83.10;;;;;;6188166;23;20011;-77
2023/06/12 08:27:34;;;;;;;2.45;2.25;;;25.80;82.90;;;;;;6214932;23;20035;-77
2023/06/12 08:30:01;;;;;;;2.20;2.00;;;25.80;83.10;;;;;;6213860;23;20009;-76
2023/06/12 08:32:27;;;;;;;1.95;1.73;;;25.90;82.90;;;;;;6213707;23;20088;-77
2023/06/12 08:34:53;;;;;;;3.05;1.92;;;26.10;83.00;;;;;;6215411;23;20013;-77
2023/06/12 08:37:20;;;;;;;3.38;1.83;;;26.10;81.60;;;;;;6216425;23;20308;-77
2023/06/12 08:39:46;;;;;;;2.85;2.00;;;26.20;80.60;;;;;;6189661;23;20001;-78
2023/06/12 08:42:17;;;;;;;2.75;1.90;;;26.30;80.70;;;;;;6212602;23;20012;-79
2023/06/12 08:44:47;;;;;;;3.17;2.08;;;26.40;79.50;;;;;;6214076;23;20000;-78
2023/06/12 08:47:14;;;;;;;2.53;2.00;;;26.40;76.20;;;;;;6214669;23;20008;-77
2023/06/12 08:49:40;;;;;;;2.47;2.28;;;26.40;77.80;;;;;;6215463;23;20005;-76
2023/06/12 08:52:10;;;;;;;6.03;4.35;;;26.50;78.40;;;;;;6213804;23;20004;-77
2023/06/12 08:54:43;;;;;;;;;;;26.60;78.20;;;;;;6189484;23;20062;-78
2023/06/12 08:57:10;;;;;;;2.20;1.67;;;26.60;76.90;;;;;;6215185;23;19904;-78
2023/06/12 08:59:36;;;;;;;2.00;1.80;;;26.70;77.10;;;;;;6215627;23;20001;-78
2023/06/12 09:02:03;;;;;;;2.65;1.70;;;26.70;76.50;;;;;;6214479;23;20687;-76
2023/06/12 09:04:52;;;;;;;2.65;1.67;;;26.80;77.80;;;;;;6187406;23;20007;-77
2023/06/12 09:07:18;;;;;;;2.00;1.80;;;27.00;77.90;;;;;;6215859;23;20487;-76
2023/06/12 09:09:46;;;;;;;2.35;2.10;;;27.00;77.10;;;;;;6216185;23;20004;-76
2023/06/12 09:12:13;;;;;;;5.72;2.55;;;27.10;77.10;;;;;;6215816;23;20044;-77
2023/06/12 09:14:44;;;;;;;3.58;2.20;;;27.10;74.90;;;;;;6187232;23;20005;-77
2023/06/12 09:17:10;;;;;;;3.40;2.42;;;27.20;76.10;;;;;;6215233;23;20016;-77
2023/06/12 09:19:41;;;;;;;3.22;1.98;;;27.20;75.10;;;;;;6216338;23;20047;-77
2023/06/12 09:22:07;;;;;;;2.92;2.08;;;27.20;74.70;;;;;;6189142;23;20039;-77
2023/06/12 09:24:33;;;;;;;2.03;1.67;;;27.20;76.00;;;;;;6215858;23;20005;-77
2023/06/12 09:27:00;;;;;;;2.30;2.10;;;27.30;75.50;;;;;;6216397;23;20001;-77
2023/06/12 09:29:33;;;;;;;3.20;1.85;;;27.30;76.10;;;;;;6215992;23;20034;-76
2023/06/12 09:32:03;;;;;;;2.58;2.00;;;27.40;75.50;;;;;;6215837;23;20419;-77
2023/06/12 09:34:31;;;;;;;1.75;1.65;;;27.40;74.50;;;;;;6215831;23;20051;-76
2023/06/12 09:37:00;;;;;;;1.80;1.70;;;27.40;74.10;;;;;;6215938;23;20004;-77
2023/06/12 09:39:27;;;;;;;1.73;1.63;;;27.40;74.00;;;;;;6189167;23;20370;-77
2023/06/12 09:41:54;;;;;;;1.83;1.67;;;27.40;73.00;;;;;;6214490;23;20100;-77
2023/06/12 09:44:28;;;;;;;3.30;1.98;;;27.50;73.00;;;;;;6188677;23;20000;-79
2023/06/12 09:47:00;;;;;;;4.55;2.10;;;27.60;72.10;;;;;;6215192;23;20032;-79
2023/06/12 09:49:27;;;;;;;2.70;1.70;;;27.70;72.60;;;;;;6189261;23;20005;-77
2023/06/12 09:51:54;;;;;;;1.58;1.48;;;27.90;73.10;;;;;;6188711;23;20066;-78
2023/06/12 09:54:22;;;;;;;1.95;1.73;;;28.00;71.80;;;;;;6214961;23;20012;-77
2023/06/12 09:56:51;;;;;;;7.05;2.05;;;28.00;70.10;;;;;;6188159;23;20009;-77
2023/06/12 09:59:21;;;;;;;2.10;1.90;;;28.10;71.10;;;;;;6215545;23;20047;-77
2023/06/12 10:01:49;;;;;;;3.07;2.33;;;28.20;69.70;;;;;;6213983;23;20156;-78
2023/06/12 10:04:24;;;;;;;1.90;1.70;;;28.30;69.70;;;;;;6189416;23;20350;-77
2023/06/12 10:06:55;;;;;;;2.30;1.80;;;28.40;69.50;;;;;;6215444;23;20372;-77
2023/06/12 10:09:21;;;;;;;1.75;1.63;;;28.50;69.90;;;;;;6189130;23;20008;-76
2023/06/12 10:11:48;;;;;;;2.78;1.75;;;28.70;70.00;;;;;;6215738;23;20080;-77
2023/06/12 10:14:16;;;;;;;2.10;1.90;;;28.80;69.50;;;;;;6214396;23;20004;-77
2023/06/12 10:16:43;;;;;;;4.15;1.80;;;28.90;67.10;;;;;;6215697;23;20088;-77
2023/06/12 10:19:10;;;;;;;2.22;1.52;;;29.00;67.50;;;;;;6216029;23;19997;-77
2023/06/12 10:21:36;;;;;;;1.77;1.67;;;29.00;67.40;;;;;;6188523;23;20004;-77
2023/06/12 10:24:02;;;;;;;2.13;1.92;;;29.10;67.30;;;;;;6214483;23;20322;-77
2023/06/12 10:26:29;;;;;;;1.60;1.50;;;29.10;66.90;;;;;;6213835;23;20407;-78
2023/06/12 10:28:55;;;;;;;1.70;1.60;;;29.10;67.10;;;;;;6214160;23;20008;-77
2023/06/12 10:31:23;;;;;;;1.73;1.63;;;29.20;67.50;;;;;;6214832;23;20015;-77
2023/06/12 10:33:58;;;;;;;1.67;1.58;;;29.20;67.30;;;;;;6215574;23;20000;-78
2023/06/12 10:36:24;;;;;;;2.60;1.75;;;29.20;66.80;;;;;;6215545;23;20055;-78
2023/06/12 10:39:01;;;;;;;1.48;1.38;;;29.30;64.90;;;;;;6189341;23;20053;-77
2023/06/12 10:41:33;;;;;;;1.52;1.42;;;29.40;66.60;;;;;;6214736;23;20004;-77
2023/06/12 10:43:59;;;;;;;2.78;1.92;;;29.50;66.70;;;;;;6215725;23;20375;-77
2023/06/12 10:46:43;;;;;;;2.33;1.90;;;29.60;66.60;;;;;;6214189;23;20002;-78
2023/06/12 10:49:11;;;;;;;2.28;1.77;;;29.60;65.40;;;;;;6215814;23;20000;-77
2023/06/12 10:51:45;;;;;;;1.92;1.73;;;29.60;64.90;;;;;;6215338;23;20004;-77
2023/06/12 10:54:15;;;;;;;1.80;1.60;;;29.70;65.20;;;;;;6215707;23;20051;-77
2023/06/12 10:56:57;;;;;;;1.58;1.48;;;29.80;64.40;;;;;;6215214;23;20005;-77
2023/06/12 10:59:30;;;;;;;1.52;1.42;;;29.90;64.80;;;;;;6215460;23;20000;-77
2023/06/12 11:01:56;;;;;;;1.85;1.70;;;30.00;65.00;;;;;;6215946;23;20048;-77
2023/06/12 11:04:21;;;;;;;1.58;1.40;;;30.20;65.70;;;;;;6216091;23;20008;-77
2023/06/12 11:06:48;;;;;;;1.98;1.77;;;30.30;65.90;;;;;;6216045;23;20007;-77
2023/06/12 11:09:14;;;;;;;2.63;1.50;;;30.50;65.00;;;;;;6215279;23;20493;-77
2023/06/12 11:11:48;;;;;;;2.72;1.77;;;30.60;65.30;;;;;;6215706;23;20001;-76
2023/06/12 11:14:13;;;;;;;3.38;1.75;;;30.70;64.40;;;;;;6214743;23;20004;-78
2023/06/12 11:16:45;;;;;;;1.67;1.50;;;30.90;63.20;;;;;;6214924;23;20078;-78
2023/06/12 11:19:11;;;;;;;1.58;1.40;;;30.90;62.70;;;;;;6189046;23;20548;-79
2023/06/12 11:21:47;;;;;;;2.58;1.48;;;31.00;62.50;;;;;;6212070;23;20055;-77
2023/06/12 11:24:13;;;;;;;2.97;2.13;;;31.10;61.00;;;;;;6187426;23;20092;-76
2023/06/12 11:26:38;;;;;;;2.58;1.83;;;31.10;60.00;;;;;;6215300;23;20036;-77
2023/06/12 11:29:18;;;;;;;1.38;1.25;;;31.20;58.60;;;;;;6214553;23;20008;-77
2023/06/12 11:31:58;;;;;;;;;;;31.30;59.70;;;;;;6215585;23;20009;-77
2023/06/12 11:34:24;;;;;;;;;;;31.40;58.50;;;;;;6213482;23;19900;-76
2023/06/12 11:36:51;;;;;;;1.20;1.10;;;31.60;58.60;;;;;;6214382;23;19910;-80
2023/06/12 11:39:19;;;;;;;1.50;1.40;;;31.80;59.20;;;;;;6215711;23;19996;-78
2023/06/12 11:41:48;;;;;;;2.53;1.55;;;32.00;58.20;;;;;;6215529;23;20005;-78
2023/06/12 11:44:16;;;;;;;3.72;1.70;;;32.20;57.30;;;;;;6216611;23;20023;-79
2023/06/12 11:46:42;;;;;;;1.60;1.40;;;32.40;56.40;;;;;;6187621;23;20087;-79
2023/06/12 11:49:08;;;;;;;4.30;1.50;;;32.50;57.00;;;;;;6213918;23;20457;-79
2023/06/12 11:51:34;;;;;;;2.40;1.10;;;32.70;56.80;;;;;;6215165;23;20083;-79
2023/06/12 11:54:00;;;;;;;1.58;1.23;;;32.90;56.40;;;;;;6213717;23;20423;-79
2023/06/12 11:56:25;;;;;;;2.47;1.30;;;33.00;55.80;;;;;;6213351;23;20094;-78
2023/06/12 11:58:52;;;;;;;1.45;1.30;;;33.00;54.60;;;;;;6213310;23;20004;-78
2023/06/12 12:01:25;;;;;;;1.73;1.50;;;33.10;55.00;;;;;;6187586;23;20001;-78
2023/06/12 12:03:51;;;;;;;1.42;1.33;;;33.10;55.30;;;;;;6188347;23;20028;-79
2023/06/12 12:06:17;;;;;;;1.48;1.30;;;33.20;53.50;;;;;;6213374;23;20000;-78
2023/06/12 12:08:44;;;;;;;2.05;1.80;;;33.30;53.80;;;;;;6212694;23;20028;-77
2023/06/12 12:11:30;;;;;;;1.95;1.50;;;33.40;52.60;;;;;;6219739;23;20008;-76
2023/06/12 12:14:00;;;;;;;2.60;1.95;;;33.60;52.80;;;;;;6185448;23;20035;-77
2023/06/12 12:16:28;;;;;;;1.50;1.40;;;33.70;51.80;;;;;;6213107;23;20084;-77
2023/06/12 12:18:56;;;;;;;3.05;1.42;;;33.80;52.20;;;;;;6187160;23;20000;-76
2023/06/12 12:21:23;;;;;;;1.70;1.20;;;33.80;50.90;;;;;;6217729;23;20075;-77
2023/06/12 12:23:49;;;;;;;3.05;1.50;;;33.90;51.10;;;;;;6219279;23;20020;-77
2023/06/12 12:26:15;;;;;;;3.03;1.50;;;33.90;49.70;;;;;;6187179;23;20008;-75
2023/06/12 12:28:41;;;;;;;2.53;1.60;;;34.00;50.70;;;;;;6190093;23;20047;-76
2023/06/12 12:31:08;;;;;;;1.65;1.40;;;34.00;51.00;;;;;;6193308;23;20005;-76
2023/06/12 12:33:35;;;;;;;1.55;1.33;;;34.10;50.60;;;;;;6191652;23;20004;-78
2023/06/12 12:36:02;;;;;;;2.13;1.60;;;34.10;49.80;;;;;;6219085;23;20005;-75
2023/06/12 12:38:28;;;;;;;2.90;1.23;;;34.10;49.50;;;;;;6220848;23;20000;-77
2023/06/12 12:40:54;;;;;;;2.05;1.35;;;34.10;49.10;;;;;;6222559;23;19997;-78
2023/06/12 12:43:20;;;;;;;1.40;1.30;;;34.20;49.60;;;;;;6222653;23;20008;-79
2023/06/12 12:45:46;;;;;;;1.83;1.42;;;34.40;49.60;;;;;;6218280;23;19996;-78
2023/06/12 12:48:11;;;;;;;1.55;1.30;;;34.60;49.50;;;;;;6216788;23;20052;-79
2023/06/12 12:50:37;;;;;;;1.30;1.20;;;34.60;48.80;;;;;;6191110;23;21013;-78